sensor_id;sensor_type;location;lat;lon;timestamp;P1;durP1;ratioP1;P2;durP2;ratioP2
70433;SDS011;57876;47.792;12.960;2023-05-10T00:00:18;4.23;;;1.10;;
70433;SDS011;57876;47.792;12.960;2023-05-10T00:02:43;4.40;;;1.00;;
70433;SDS011;57876;47.792;12.960;2023-05-10T00:05:07;3.80;;;0.90;;
70433;SDS011;57876;47.792;12.960;2023-05-10T00:07:32;4.30;;;1.10;;
70433;SDS011;57876;47.792;12.960;2023-05-10T00:09:56;4.07;;;0.93;;
70433;SDS011;57876;47.792;12.960;2023-05-10T00:12:21;4.33;;;1.07;;
70433;SDS011;57876;47.792;12.960;2023-05-10T00:14:45;3.80;;;1.00;;
70433;SDS011;57876;47.792;12.960;2023-05-10T00:17:10;4.27;;;1.00;;
70433;SDS011;57876;47.792;12.960;2023-05-10T00:19:34;3.70;;;0.80;;
70433;SDS011;57876;47.792;12.960;2023-05-10T00:21:58;3.83;;;1.00;;
70433;SDS011;57876;47.792;12.960;2023-05-10T00:24:23;4.30;;;0.83;;
70433;SDS011;57876;47.792;12.960;2023-05-10T00:26:47;3.83;;;0.90;;
70433;SDS011;57876;47.792;12.960;2023-05-10T00:29:12;4.10;;;0.90;;
70433;SDS011;57876;47.792;12.960;2023-05-10T00:31:36;4.07;;;1.00;;
70433;SDS011;57876;47.792;12.960;2023-05-10T00:34:00;4.23;;;1.10;;
70433;SDS011;57876;47.792;12.960;2023-05-10T00:36:25;4.40;;;1.00;;
70433;SDS011;57876;47.792;12.960;2023-05-10T00:38:50;4.22;;;0.93;;
70433;SDS011;57876;47.792;12.960;2023-05-10T00:41:14;3.10;;;0.70;;
70433;SDS011;57876;47.792;12.960;2023-05-10T00:43:39;3.83;;;0.90;;
70433;SDS011;57876;47.792;12.960;2023-05-10T00:46:04;4.23;;;1.10;;
70433;SDS011;57876;47.792;12.960;2023-05-10T00:48:28;4.03;;;1.00;;
70433;SDS011;57876;47.792;12.960;2023-05-10T00:50:53;4.00;;;1.03;;
70433;SDS011;57876;47.792;12.960;2023-05-10T00:53:18;4.20;;;1.00;;
70433;SDS011;57876;47.792;12.960;2023-05-10T00:55:43;4.10;;;1.00;;
70433;SDS011;57876;47.792;12.960;2023-05-10T00:58:07;4.10;;;1.00;;
70433;SDS011;57876;47.792;12.960;2023-05-10T01:00:32;4.13;;;1.00;;
70433;SDS011;57876;47.792;12.960;2023-05-10T01:02:57;3.92;;;0.90;;
70433;SDS011;57876;47.792;12.960;2023-05-10T01:05:22;3.87;;;0.90;;
70433;SDS011;57876;47.792;12.960;2023-05-10T01:07:46;3.70;;;1.00;;
70433;SDS011;57876;47.792;12.960;2023-05-10T01:10:11;3.83;;;1.00;;
70433;SDS011;57876;47.792;12.960;2023-05-10T01:12:35;4.13;;;1.00;;
70433;SDS011;57876;47.792;12.960;2023-05-10T01:15:03;3.67;;;0.90;;
70433;SDS011;57876;47.792;12.960;2023-05-10T01:17:29;3.78;;;0.77;;
70433;SDS011;57876;47.792;12.960;2023-05-10T01:19:54;4.30;;;1.00;;
70433;SDS011;57876;47.792;12.960;2023-05-10T01:33:26;3.55;;;0.80;;
70433;SDS011;57876;47.792;12.960;2023-05-10T01:36:13;3.60;;;0.70;;
70433;SDS011;57876;47.792;12.960;2023-05-10T01:38:43;3.65;;;0.75;;
70433;SDS011;57876;47.792;12.960;2023-05-10T01:41:24;3.58;;;0.75;;
70433;SDS011;57876;47.792;12.960;2023-05-10T01:44:02;4.63;;;1.00;;
70433;SDS011;57876;47.792;12.960;2023-05-10T01:46:37;3.33;;;0.80;;
70433;SDS011;57876;47.792;12.960;2023-05-10T01:49:07;3.83;;;0.85;;
70433;SDS011;57876;47.792;12.960;2023-05-10T01:51:40;3.90;;;0.98;;
70433;SDS011;57876;47.792;12.960;2023-05-10T01:54:08;3.83;;;0.88;;
70433;SDS011;57876;47.792;12.960;2023-05-10T01:56:35;4.17;;;0.97;;
70433;SDS011;57876;47.792;12.960;2023-05-10T01:59:03;3.97;;;0.80;;
70433;SDS011;57876;47.792;12.960;2023-05-10T02:01:31;3.83;;;0.90;;
70433;SDS011;57876;47.792;12.960;2023-05-10T02:03:58;3.90;;;0.82;;
70433;SDS011;57876;47.792;12.960;2023-05-10T02:06:23;3.80;;;0.80;;
70433;SDS011;57876;47.792;12.960;2023-05-10T02:08:50;3.37;;;0.80;;
70433;SDS011;57876;47.792;12.960;2023-05-10T02:11:16;3.67;;;0.88;;
70433;SDS011;57876;47.792;12.960;2023-05-10T02:13:42;4.13;;;1.00;;
70433;SDS011;57876;47.792;12.960;2023-05-10T02:16:09;3.70;;;0.80;;
70433;SDS011;57876;47.792;12.960;2023-05-10T02:18:34;3.42;;;0.70;;
70433;SDS011;57876;47.792;12.960;2023-05-10T02:21:01;3.80;;;0.90;;
70433;SDS011;57876;47.792;12.960;2023-05-10T02:23:26;3.42;;;0.73;;
70433;SDS011;57876;47.792;12.960;2023-05-10T02:25:52;3.70;;;0.80;;
70433;SDS011;57876;47.792;12.960;2023-05-10T02:28:18;3.45;;;0.70;;
70433;SDS011;57876;47.792;12.960;2023-05-10T02:30:45;3.78;;;0.80;;
70433;SDS011;57876;47.792;12.960;2023-05-10T02:33:11;3.40;;;0.70;;
70433;SDS011;57876;47.792;12.960;2023-05-10T02:35:36;3.78;;;0.80;;
70433;SDS011;57876;47.792;12.960;2023-05-10T02:38:02;3.33;;;0.80;;
70433;SDS011;57876;47.792;12.960;2023-05-10T02:40:28;3.30;;;0.73;;
70433;SDS011;57876;47.792;12.960;2023-05-10T02:42:54;3.28;;;0.57;;
70433;SDS011;57876;47.792;12.960;2023-05-10T02:45:21;3.58;;;0.80;;
70433;SDS011;57876;47.792;12.960;2023-05-10T02:47:48;3.30;;;0.68;;
70433;SDS011;57876;47.792;12.960;2023-05-10T02:50:13;3.47;;;0.73;;
70433;SDS011;57876;47.792;12.960;2023-05-10T02:52:39;3.60;;;0.75;;
70433;SDS011;57876;47.792;12.960;2023-05-10T02:55:07;3.55;;;0.85;;
70433;SDS011;57876;47.792;12.960;2023-05-10T02:57:34;3.47;;;0.70;;
70433;SDS011;57876;47.792;12.960;2023-05-10T03:00:02;3.13;;;0.68;;
70433;SDS011;57876;47.792;12.960;2023-05-10T03:02:27;3.57;;;0.70;;
70433;SDS011;57876;47.792;12.960;2023-05-10T03:04:54;3.70;;;0.80;;
70433;SDS011;57876;47.792;12.960;2023-05-10T03:07:18;3.95;;;0.90;;
70433;SDS011;57876;47.792;12.960;2023-05-10T03:09:45;3.70;;;0.77;;
70433;SDS011;57876;47.792;12.960;2023-05-10T03:15:11;3.60;;;0.80;;
70433;SDS011;57876;47.792;12.960;2023-05-10T03:17:47;3.53;;;0.73;;
70433;SDS011;57876;47.792;12.960;2023-05-10T03:20:24;3.70;;;0.80;;
70433;SDS011;57876;47.792;12.960;2023-05-10T03:22:55;3.47;;;0.80;;
70433;SDS011;57876;47.792;12.960;2023-05-10T03:25:25;3.42;;;0.80;;
70433;SDS011;57876;47.792;12.960;2023-05-10T03:27:50;3.42;;;0.73;;
70433;SDS011;57876;47.792;12.960;2023-05-10T03:30:16;3.47;;;0.70;;
70433;SDS011;57876;47.792;12.960;2023-05-10T03:32:41;3.60;;;0.80;;
70433;SDS011;57876;47.792;12.960;2023-05-10T03:35:06;3.40;;;0.70;;
70433;SDS011;57876;47.792;12.960;2023-05-10T03:37:34;3.47;;;0.70;;
70433;SDS011;57876;47.792;12.960;2023-05-10T03:39:59;3.80;;;0.90;;
70433;SDS011;57876;47.792;12.960;2023-05-10T03:42:23;3.20;;;0.73;;
70433;SDS011;57876;47.792;12.960;2023-05-10T03:44:48;3.80;;;0.80;;
70433;SDS011;57876;47.792;12.960;2023-05-10T03:47:13;3.73;;;0.80;;
70433;SDS011;57876;47.792;12.960;2023-05-10T03:49:38;3.30;;;0.70;;
70433;SDS011;57876;47.792;12.960;2023-05-10T03:52:02;3.33;;;0.77;;
70433;SDS011;57876;47.792;12.960;2023-05-10T03:54:27;3.60;;;0.80;;
70433;SDS011;57876;47.792;12.960;2023-05-10T03:56:51;3.90;;;0.80;;
70433;SDS011;57876;47.792;12.960;2023-05-10T03:59:15;3.97;;;0.90;;
70433;SDS011;57876;47.792;12.960;2023-05-10T04:01:40;3.47;;;0.70;;
70433;SDS011;57876;47.792;12.960;2023-05-10T04:04:04;3.13;;;0.60;;
70433;SDS011;57876;47.792;12.960;2023-05-10T04:06:29;3.90;;;0.90;;
70433;SDS011;57876;47.792;12.960;2023-05-10T04:08:53;3.27;;;0.70;;
70433;SDS011;57876;47.792;12.960;2023-05-10T04:11:17;3.53;;;0.70;;
70433;SDS011;57876;47.792;12.960;2023-05-10T04:13:42;3.13;;;0.60;;
70433;SDS011;57876;47.792;12.960;2023-05-10T04:16:07;3.60;;;0.70;;
70433;SDS011;57876;47.792;12.960;2023-05-10T04:18:31;3.30;;;0.70;;
70433;SDS011;57876;47.792;12.960;2023-05-10T04:20:55;3.27;;;0.63;;
70433;SDS011;57876;47.792;12.960;2023-05-10T04:23:20;3.40;;;0.70;;
70433;SDS011;57876;47.792;12.960;2023-05-10T04:25:44;3.30;;;0.70;;
70433;SDS011;57876;47.792;12.960;2023-05-10T04:28:09;3.33;;;0.70;;
70433;SDS011;57876;47.792;12.960;2023-05-10T04:30:34;3.73;;;0.70;;
70433;SDS011;57876;47.792;12.960;2023-05-10T04:32:59;3.25;;;0.70;;
70433;SDS011;57876;47.792;12.960;2023-05-10T04:35:23;2.90;;;0.60;;
70433;SDS011;57876;47.792;12.960;2023-05-10T04:37:47;3.80;;;0.83;;
70433;SDS011;57876;47.792;12.960;2023-05-10T04:40:12;3.38;;;0.60;;
70433;SDS011;57876;47.792;12.960;2023-05-10T04:42:36;2.83;;;0.50;;
70433;SDS011;57876;47.792;12.960;2023-05-10T04:45:03;3.40;;;0.80;;
70433;SDS011;57876;47.792;12.960;2023-05-10T04:47:28;3.57;;;0.80;;
70433;SDS011;57876;47.792;12.960;2023-05-10T04:49:52;3.40;;;0.80;;
70433;SDS011;57876;47.792;12.960;2023-05-10T04:52:17;2.93;;;0.57;;
70433;SDS011;57876;47.792;12.960;2023-05-10T04:54:41;3.60;;;0.90;;
70433;SDS011;57876;47.792;12.960;2023-05-10T04:57:06;2.90;;;0.57;;
70433;SDS011;57876;47.792;12.960;2023-05-10T04:59:30;3.30;;;0.77;;
70433;SDS011;57876;47.792;12.960;2023-05-10T05:01:55;2.57;;;0.43;;
70433;SDS011;57876;47.792;12.960;2023-05-10T05:04:19;3.40;;;0.80;;
70433;SDS011;57876;47.792;12.960;2023-05-10T05:06:43;3.50;;;0.80;;
70433;SDS011;57876;47.792;12.960;2023-05-10T05:09:08;3.70;;;0.70;;
70433;SDS011;57876;47.792;12.960;2023-05-10T05:11:34;2.77;;;0.57;;
70433;SDS011;57876;47.792;12.960;2023-05-10T05:13:58;3.25;;;0.65;;
70433;SDS011;57876;47.792;12.960;2023-05-10T05:16:23;3.22;;;0.60;;
70433;SDS011;57876;47.792;12.960;2023-05-10T05:18:47;3.37;;;0.70;;
70433;SDS011;57876;47.792;12.960;2023-05-10T05:21:15;3.13;;;0.67;;
70433;SDS011;57876;47.792;12.960;2023-05-10T05:23:41;2.85;;;0.50;;
70433;SDS011;57876;47.792;12.960;2023-05-10T05:26:05;3.63;;;0.70;;
70433;SDS011;57876;47.792;12.960;2023-05-10T05:28:29;3.07;;;0.70;;
70433;SDS011;57876;47.792;12.960;2023-05-10T05:30:56;3.60;;;0.80;;
70433;SDS011;57876;47.792;12.960;2023-05-10T05:33:21;3.03;;;0.60;;
70433;SDS011;57876;47.792;12.960;2023-05-10T05:35:45;3.85;;;0.80;;
70433;SDS011;57876;47.792;12.960;2023-05-10T05:38:14;4.10;;;1.00;;
70433;SDS011;57876;47.792;12.960;2023-05-10T05:40:38;3.85;;;0.85;;
70433;SDS011;57876;47.792;12.960;2023-05-10T05:43:03;4.20;;;1.10;;
70433;SDS011;57876;47.792;12.960;2023-05-10T05:45:27;4.13;;;1.00;;
70433;SDS011;57876;47.792;12.960;2023-05-10T05:47:52;4.83;;;1.27;;
70433;SDS011;57876;47.792;12.960;2023-05-10T05:50:16;4.35;;;0.90;;
70433;SDS011;57876;47.792;12.960;2023-05-10T05:52:41;4.77;;;1.20;;
70433;SDS011;57876;47.792;12.960;2023-05-10T05:55:05;4.57;;;1.30;;
70433;SDS011;57876;47.792;12.960;2023-05-10T05:57:30;3.60;;;0.90;;
70433;SDS011;57876;47.792;12.960;2023-05-10T05:59:54;4.70;;;1.23;;
70433;SDS011;57876;47.792;12.960;2023-05-10T06:02:19;4.83;;;1.27;;
70433;SDS011;57876;47.792;12.960;2023-05-10T06:04:43;4.27;;;1.40;;
70433;SDS011;57876;47.792;12.960;2023-05-10T06:07:07;4.30;;;1.10;;
70433;SDS011;57876;47.792;12.960;2023-05-10T06:09:32;4.83;;;1.10;;
70433;SDS011;57876;47.792;12.960;2023-05-10T06:11:56;4.43;;;1.23;;
70433;SDS011;57876;47.792;12.960;2023-05-10T06:14:21;5.07;;;1.30;;
70433;SDS011;57876;47.792;12.960;2023-05-10T06:16:47;4.38;;;1.20;;
70433;SDS011;57876;47.792;12.960;2023-05-10T06:19:11;5.40;;;1.30;;
70433;SDS011;57876;47.792;12.960;2023-05-10T06:21:36;5.28;;;1.60;;
70433;SDS011;57876;47.792;12.960;2023-05-10T06:24:00;5.13;;;1.40;;
70433;SDS011;57876;47.792;12.960;2023-05-10T06:26:25;5.17;;;1.43;;
70433;SDS011;57876;47.792;12.960;2023-05-10T06:28:49;5.57;;;1.80;;
70433;SDS011;57876;47.792;12.960;2023-05-10T06:31:13;7.50;;;1.53;;
70433;SDS011;57876;47.792;12.960;2023-05-10T06:33:38;4.80;;;1.43;;
70433;SDS011;57876;47.792;12.960;2023-05-10T06:36:02;5.97;;;1.40;;
70433;SDS011;57876;47.792;12.960;2023-05-10T06:38:27;6.30;;;1.50;;
70433;SDS011;57876;47.792;12.960;2023-05-10T06:40:51;4.63;;;1.30;;
70433;SDS011;57876;47.792;12.960;2023-05-10T06:43:16;5.13;;;1.20;;
70433;SDS011;57876;47.792;12.960;2023-05-10T06:45:40;4.83;;;1.40;;
70433;SDS011;57876;47.792;12.960;2023-05-10T06:48:05;5.88;;;1.42;;
70433;SDS011;57876;47.792;12.960;2023-05-10T06:50:29;5.07;;;1.20;;
70433;SDS011;57876;47.792;12.960;2023-05-10T06:52:53;4.70;;;1.30;;
70433;SDS011;57876;47.792;12.960;2023-05-10T06:55:19;4.75;;;1.20;;
70433;SDS011;57876;47.792;12.960;2023-05-10T06:57:43;5.43;;;1.13;;
70433;SDS011;57876;47.792;12.960;2023-05-10T07:00:08;5.23;;;1.20;;
70433;SDS011;57876;47.792;12.960;2023-05-10T07:02:33;4.63;;;1.23;;
70433;SDS011;57876;47.792;12.960;2023-05-10T07:04:58;4.50;;;1.10;;
70433;SDS011;57876;47.792;12.960;2023-05-10T07:07:22;5.03;;;1.30;;
70433;SDS011;57876;47.792;12.960;2023-05-10T07:09:46;4.20;;;1.10;;
70433;SDS011;57876;47.792;12.960;2023-05-10T07:12:11;5.40;;;1.20;;
70433;SDS011;57876;47.792;12.960;2023-05-10T07:14:35;3.90;;;0.90;;
70433;SDS011;57876;47.792;12.960;2023-05-10T07:17:00;4.70;;;1.30;;
70433;SDS011;57876;47.792;12.960;2023-05-10T07:19:24;4.50;;;1.10;;
70433;SDS011;57876;47.792;12.960;2023-05-10T07:21:49;5.00;;;1.43;;
70433;SDS011;57876;47.792;12.960;2023-05-10T07:24:16;4.63;;;1.33;;
70433;SDS011;57876;47.792;12.960;2023-05-10T07:26:40;4.32;;;1.10;;
70433;SDS011;57876;47.792;12.960;2023-05-10T07:29:04;4.20;;;1.10;;
70433;SDS011;57876;47.792;12.960;2023-05-10T07:31:29;4.80;;;1.20;;
70433;SDS011;57876;47.792;12.960;2023-05-10T07:33:53;4.47;;;1.30;;
70433;SDS011;57876;47.792;12.960;2023-05-10T07:36:18;4.77;;;1.30;;
70433;SDS011;57876;47.792;12.960;2023-05-10T07:38:42;4.60;;;1.10;;
70433;SDS011;57876;47.792;12.960;2023-05-10T07:41:06;4.67;;;1.10;;
70433;SDS011;57876;47.792;12.960;2023-05-10T07:43:31;4.70;;;1.30;;
70433;SDS011;57876;47.792;12.960;2023-05-10T07:45:55;4.57;;;1.20;;
70433;SDS011;57876;47.792;12.960;2023-05-10T07:48:21;4.63;;;1.00;;
70433;SDS011;57876;47.792;12.960;2023-05-10T07:50:45;3.93;;;1.00;;
70433;SDS011;57876;47.792;12.960;2023-05-10T07:53:10;4.27;;;1.23;;
70433;SDS011;57876;47.792;12.960;2023-05-10T07:55:34;4.50;;;1.10;;
70433;SDS011;57876;47.792;12.960;2023-05-10T07:57:59;4.63;;;1.17;;
70433;SDS011;57876;47.792;12.960;2023-05-10T08:00:25;4.23;;;1.00;;
70433;SDS011;57876;47.792;12.960;2023-05-10T08:02:49;4.20;;;1.17;;
70433;SDS011;57876;47.792;12.960;2023-05-10T08:05:14;4.47;;;1.20;;
70433;SDS011;57876;47.792;12.960;2023-05-10T08:07:38;5.20;;;1.10;;
70433;SDS011;57876;47.792;12.960;2023-05-10T08:10:03;4.85;;;1.30;;
70433;SDS011;57876;47.792;12.960;2023-05-10T08:12:28;5.00;;;1.33;;
70433;SDS011;57876;47.792;12.960;2023-05-10T08:14:55;4.60;;;1.07;;
70433;SDS011;57876;47.792;12.960;2023-05-10T08:17:20;4.65;;;1.35;;
70433;SDS011;57876;47.792;12.960;2023-05-10T08:19:44;4.70;;;1.20;;
70433;SDS011;57876;47.792;12.960;2023-05-10T08:22:08;4.37;;;1.07;;
70433;SDS011;57876;47.792;12.960;2023-05-10T08:24:33;4.50;;;1.23;;
70433;SDS011;57876;47.792;12.960;2023-05-10T08:27:02;4.17;;;1.00;;
70433;SDS011;57876;47.792;12.960;2023-05-10T08:29:26;4.05;;;1.00;;
70433;SDS011;57876;47.792;12.960;2023-05-10T08:31:50;4.67;;;1.20;;
70433;SDS011;57876;47.792;12.960;2023-05-10T08:34:15;4.50;;;1.07;;
70433;SDS011;57876;47.792;12.960;2023-05-10T08:36:39;4.47;;;0.90;;
70433;SDS011;57876;47.792;12.960;2023-05-10T08:39:04;4.40;;;1.23;;
70433;SDS011;57876;47.792;12.960;2023-05-10T08:41:28;4.60;;;1.13;;
70433;SDS011;57876;47.792;12.960;2023-05-10T08:43:53;4.50;;;1.15;;
70433;SDS011;57876;47.792;12.960;2023-05-10T08:46:19;4.70;;;1.20;;
70433;SDS011;57876;47.792;12.960;2023-05-10T08:48:45;5.00;;;1.10;;
70433;SDS011;57876;47.792;12.960;2023-05-10T08:51:12;4.30;;;1.05;;
70433;SDS011;57876;47.792;12.960;2023-05-10T08:53:38;6.83;;;1.10;;
70433;SDS011;57876;47.792;12.960;2023-05-10T08:56:03;4.38;;;1.10;;
70433;SDS011;57876;47.792;12.960;2023-05-10T08:58:28;4.67;;;1.07;;
70433;SDS011;57876;47.792;12.960;2023-05-10T09:00:53;4.65;;;1.15;;
70433;SDS011;57876;47.792;12.960;2023-05-10T09:03:17;4.53;;;1.10;;
70433;SDS011;57876;47.792;12.960;2023-05-10T09:05:42;4.07;;;1.00;;
70433;SDS011;57876;47.792;12.960;2023-05-10T09:08:06;4.78;;;1.20;;
70433;SDS011;57876;47.792;12.960;2023-05-10T09:10:32;4.55;;;1.00;;
70433;SDS011;57876;47.792;12.960;2023-05-10T09:12:57;4.50;;;1.10;;
70433;SDS011;57876;47.792;12.960;2023-05-10T09:15:22;5.22;;;1.02;;
70433;SDS011;57876;47.792;12.960;2023-05-10T09:17:46;4.50;;;1.00;;
70433;SDS011;57876;47.792;12.960;2023-05-10T09:20:13;4.68;;;1.20;;
70433;SDS011;57876;47.792;12.960;2023-05-10T09:22:38;4.18;;;1.00;;
70433;SDS011;57876;47.792;12.960;2023-05-10T09:25:07;3.93;;;1.07;;
70433;SDS011;57876;47.792;12.960;2023-05-10T09:27:33;4.20;;;1.10;;
70433;SDS011;57876;47.792;12.960;2023-05-10T09:29:58;4.18;;;0.90;;
70433;SDS011;57876;47.792;12.960;2023-05-10T09:32:36;4.90;;;1.17;;
70433;SDS011;57876;47.792;12.960;2023-05-10T09:35:06;4.40;;;1.15;;
70433;SDS011;57876;47.792;12.960;2023-05-10T09:37:33;4.25;;;1.17;;
70433;SDS011;57876;47.792;12.960;2023-05-10T09:39:57;4.37;;;1.00;;
70433;SDS011;57876;47.792;12.960;2023-05-10T09:42:22;4.20;;;1.10;;
70433;SDS011;57876;47.792;12.960;2023-05-10T09:44:46;4.47;;;1.00;;
70433;SDS011;57876;47.792;12.960;2023-05-10T09:47:11;5.07;;;1.33;;
70433;SDS011;57876;47.792;12.960;2023-05-10T09:49:41;4.20;;;1.20;;
70433;SDS011;57876;47.792;12.960;2023-05-10T09:52:06;4.10;;;0.90;;
70433;SDS011;57876;47.792;12.960;2023-05-10T09:54:32;4.10;;;1.07;;
70433;SDS011;57876;47.792;12.960;2023-05-10T09:56:57;4.15;;;0.90;;
70433;SDS011;57876;47.792;12.960;2023-05-10T09:59:21;4.37;;;1.00;;
70433;SDS011;57876;47.792;12.960;2023-05-10T10:01:49;4.38;;;0.90;;
70433;SDS011;57876;47.792;12.960;2023-05-10T10:04:15;4.22;;;1.00;;
70433;SDS011;57876;47.792;12.960;2023-05-10T10:06:40;4.10;;;0.90;;
70433;SDS011;57876;47.792;12.960;2023-05-10T10:09:05;4.30;;;1.00;;
70433;SDS011;57876;47.792;12.960;2023-05-10T10:11:31;4.27;;;0.90;;
70433;SDS011;57876;47.792;12.960;2023-05-10T10:13:56;3.88;;;0.88;;
70433;SDS011;57876;47.792;12.960;2023-05-10T10:16:21;3.67;;;0.90;;
70433;SDS011;57876;47.792;12.960;2023-05-10T10:18:45;3.90;;;0.90;;
70433;SDS011;57876;47.792;12.960;2023-05-10T10:21:12;4.20;;;1.00;;
70433;SDS011;57876;47.792;12.960;2023-05-10T10:23:37;4.03;;;0.85;;
70433;SDS011;57876;47.792;12.960;2023-05-10T10:26:02;4.07;;;0.80;;
70433;SDS011;57876;47.792;12.960;2023-05-10T10:31:39;3.67;;;0.80;;
70433;SDS011;57876;47.792;12.960;2023-05-10T10:34:09;4.40;;;0.88;;
70433;SDS011;57876;47.792;12.960;2023-05-10T10:36:44;3.75;;;0.80;;
70433;SDS011;57876;47.792;12.960;2023-05-10T10:39:09;4.18;;;1.00;;
70433;SDS011;57876;47.792;12.960;2023-05-10T10:41:39;4.20;;;0.90;;
70433;SDS011;57876;47.792;12.960;2023-05-10T10:54:39;4.10;;;1.00;;
70433;SDS011;57876;47.792;12.960;2023-05-10T10:57:12;4.28;;;1.00;;
70433;SDS011;57876;47.792;12.960;2023-05-10T10:59:41;4.13;;;1.00;;
70433;SDS011;57876;47.792;12.960;2023-05-10T11:02:10;3.88;;;0.90;;
70433;SDS011;57876;47.792;12.960;2023-05-10T11:04:54;3.75;;;0.90;;
70433;SDS011;57876;47.792;12.960;2023-05-10T11:07:19;3.90;;;0.90;;
70433;SDS011;57876;47.792;12.960;2023-05-10T11:09:47;4.00;;;1.00;;
70433;SDS011;57876;47.792;12.960;2023-05-10T11:12:11;4.05;;;0.90;;
70433;SDS011;57876;47.792;12.960;2023-05-10T11:14:36;4.10;;;0.87;;
70433;SDS011;57876;47.792;12.960;2023-05-10T11:17:00;3.70;;;0.90;;
70433;SDS011;57876;47.792;12.960;2023-05-10T11:19:26;3.67;;;0.80;;
70433;SDS011;57876;47.792;12.960;2023-05-10T11:24:27;4.23;;;0.90;;
70433;SDS011;57876;47.792;12.960;2023-05-10T11:26:52;3.67;;;0.80;;
70433;SDS011;57876;47.792;12.960;2023-05-10T11:29:26;3.83;;;0.80;;
70433;SDS011;57876;47.792;12.960;2023-05-10T11:32:04;3.80;;;0.80;;
70433;SDS011;57876;47.792;12.960;2023-05-10T11:34:35;3.67;;;0.80;;
70433;SDS011;57876;47.792;12.960;2023-05-10T11:37:02;4.00;;;1.00;;
70433;SDS011;57876;47.792;12.960;2023-05-10T11:39:27;3.97;;;0.80;;
70433;SDS011;57876;47.792;12.960;2023-05-10T11:41:56;4.20;;;0.80;;
70433;SDS011;57876;47.792;12.960;2023-05-10T11:44:21;4.30;;;0.97;;
70433;SDS011;57876;47.792;12.960;2023-05-10T11:46:45;3.22;;;0.65;;
70433;SDS011;57876;47.792;12.960;2023-05-10T11:52:04;3.92;;;0.80;;
70433;SDS011;57876;47.792;12.960;2023-05-10T11:54:32;3.70;;;0.80;;
70433;SDS011;57876;47.792;12.960;2023-05-10T11:57:03;3.63;;;0.70;;
70433;SDS011;57876;47.792;12.960;2023-05-10T11:59:30;4.00;;;1.10;;
70433;SDS011;57876;47.792;12.960;2023-05-10T12:01:55;3.60;;;0.80;;
70433;SDS011;57876;47.792;12.960;2023-05-10T12:04:19;3.42;;;0.80;;
70433;SDS011;57876;47.792;12.960;2023-05-10T12:06:44;3.50;;;0.70;;
70433;SDS011;57876;47.792;12.960;2023-05-10T12:09:10;3.70;;;0.80;;
70433;SDS011;57876;47.792;12.960;2023-05-10T12:11:50;3.50;;;0.77;;
70433;SDS011;57876;47.792;12.960;2023-05-10T12:14:21;3.80;;;0.70;;
70433;SDS011;57876;47.792;12.960;2023-05-10T12:16:46;4.25;;;0.88;;
70433;SDS011;57876;47.792;12.960;2023-05-10T12:19:11;3.65;;;0.70;;
70433;SDS011;57876;47.792;12.960;2023-05-10T12:21:36;4.00;;;0.87;;
70433;SDS011;57876;47.792;12.960;2023-05-10T12:24:05;3.85;;;0.90;;
70433;SDS011;57876;47.792;12.960;2023-05-10T12:26:43;3.92;;;0.80;;
70433;SDS011;57876;47.792;12.960;2023-05-10T12:29:13;3.30;;;0.70;;
70433;SDS011;57876;47.792;12.960;2023-05-10T12:31:51;3.22;;;0.60;;
70433;SDS011;57876;47.792;12.960;2023-05-10T12:34:23;3.60;;;0.73;;
70433;SDS011;57876;47.792;12.960;2023-05-10T12:36:51;3.67;;;0.70;;
70433;SDS011;57876;47.792;12.960;2023-05-10T12:39:16;3.60;;;0.80;;
70433;SDS011;57876;47.792;12.960;2023-05-10T12:41:41;4.20;;;0.80;;
70433;SDS011;57876;47.792;12.960;2023-05-10T12:44:05;3.70;;;0.80;;
70433;SDS011;57876;47.792;12.960;2023-05-10T12:46:29;3.63;;;0.80;;
70433;SDS011;57876;47.792;12.960;2023-05-10T12:48:55;3.28;;;0.73;;
70433;SDS011;57876;47.792;12.960;2023-05-10T12:51:23;3.28;;;0.70;;
70433;SDS011;57876;47.792;12.960;2023-05-10T12:53:47;3.70;;;0.60;;
70433;SDS011;57876;47.792;12.960;2023-05-10T12:56:12;3.67;;;0.73;;
70433;SDS011;57876;47.792;12.960;2023-05-10T12:58:38;3.60;;;0.70;;
70433;SDS011;57876;47.792;12.960;2023-05-10T13:01:02;3.90;;;0.70;;
70433;SDS011;57876;47.792;12.960;2023-05-10T13:03:28;3.65;;;0.90;;
70433;SDS011;57876;47.792;12.960;2023-05-10T13:05:52;3.73;;;0.70;;
70433;SDS011;57876;47.792;12.960;2023-05-10T13:08:16;3.90;;;0.80;;
70433;SDS011;57876;47.792;12.960;2023-05-10T13:10:41;3.60;;;0.80;;
70433;SDS011;57876;47.792;12.960;2023-05-10T13:13:05;3.65;;;0.80;;
70433;SDS011;57876;47.792;12.960;2023-05-10T13:15:30;3.50;;;0.70;;
70433;SDS011;57876;47.792;12.960;2023-05-10T13:17:54;4.17;;;0.80;;
70433;SDS011;57876;47.792;12.960;2023-05-10T13:20:19;3.08;;;0.60;;
70433;SDS011;57876;47.792;12.960;2023-05-10T13:22:43;3.27;;;0.60;;
70433;SDS011;57876;47.792;12.960;2023-05-10T13:25:09;3.58;;;0.70;;
70433;SDS011;57876;47.792;12.960;2023-05-10T13:27:33;3.60;;;0.70;;
70433;SDS011;57876;47.792;12.960;2023-05-10T13:29:57;2.97;;;0.60;;
70433;SDS011;57876;47.792;12.960;2023-05-10T13:32:23;3.40;;;0.70;;
70433;SDS011;57876;47.792;12.960;2023-05-10T13:34:47;3.55;;;0.80;;
70433;SDS011;57876;47.792;12.960;2023-05-10T13:37:13;3.03;;;0.60;;
70433;SDS011;57876;47.792;12.960;2023-05-10T13:39:37;3.33;;;0.63;;
70433;SDS011;57876;47.792;12.960;2023-05-10T13:42:02;4.80;;;0.67;;
70433;SDS011;57876;47.792;12.960;2023-05-10T13:44:28;3.40;;;0.52;;
70433;SDS011;57876;47.792;12.960;2023-05-10T13:46:53;3.17;;;0.60;;
70433;SDS011;57876;47.792;12.960;2023-05-10T13:49:17;5.23;;;0.70;;
70433;SDS011;57876;47.792;12.960;2023-05-10T13:51:42;3.67;;;0.80;;
70433;SDS011;57876;47.792;12.960;2023-05-10T13:54:09;5.13;;;0.60;;
70433;SDS011;57876;47.792;12.960;2023-05-10T13:56:34;3.87;;;0.63;;
70433;SDS011;57876;47.792;12.960;2023-05-10T13:58:58;5.13;;;0.77;;
70433;SDS011;57876;47.792;12.960;2023-05-10T14:01:23;4.43;;;0.80;;
70433;SDS011;57876;47.792;12.960;2023-05-10T14:03:48;5.05;;;0.80;;
70433;SDS011;57876;47.792;12.960;2023-05-10T14:06:12;4.77;;;0.80;;
70433;SDS011;57876;47.792;12.960;2023-05-10T14:08:37;3.83;;;0.57;;
70433;SDS011;57876;47.792;12.960;2023-05-10T14:11:01;3.30;;;0.50;;
70433;SDS011;57876;47.792;12.960;2023-05-10T14:13:28;4.80;;;0.57;;
70433;SDS011;57876;47.792;12.960;2023-05-10T14:15:53;3.55;;;0.50;;
70433;SDS011;57876;47.792;12.960;2023-05-10T14:18:18;5.28;;;0.75;;
70433;SDS011;57876;47.792;12.960;2023-05-10T14:20:42;4.30;;;0.63;;
70433;SDS011;57876;47.792;12.960;2023-05-10T14:23:07;2.70;;;0.50;;
70433;SDS011;57876;47.792;12.960;2023-05-10T14:25:32;4.80;;;0.50;;
70433;SDS011;57876;47.792;12.960;2023-05-10T14:27:57;3.53;;;0.65;;
70433;SDS011;57876;47.792;12.960;2023-05-10T14:30:21;3.20;;;0.50;;
70433;SDS011;57876;47.792;12.960;2023-05-10T14:32:45;3.33;;;0.70;;
70433;SDS011;57876;47.792;12.960;2023-05-10T14:35:10;2.77;;;0.40;;
70433;SDS011;57876;47.792;12.960;2023-05-10T14:37:35;2.50;;;0.40;;
70433;SDS011;57876;47.792;12.960;2023-05-10T14:39:59;5.15;;;0.65;;
70433;SDS011;57876;47.792;12.960;2023-05-10T14:42:24;3.33;;;0.60;;
70433;SDS011;57876;47.792;12.960;2023-05-10T14:44:48;4.77;;;0.70;;
70433;SDS011;57876;47.792;12.960;2023-05-10T14:47:13;3.50;;;0.60;;
70433;SDS011;57876;47.792;12.960;2023-05-10T14:49:37;4.40;;;0.60;;
70433;SDS011;57876;47.792;12.960;2023-05-10T14:52:02;3.80;;;0.50;;
70433;SDS011;57876;47.792;12.960;2023-05-10T14:54:27;3.22;;;0.60;;
70433;SDS011;57876;47.792;12.960;2023-05-10T14:56:51;2.90;;;0.50;;